Washington, Wisconsin
Current Conditions -  °F | °C
As of 10:10 PM on Sunday 25 Jan 2015 (Local Time) from KEGV Reporting Station
Clear Clear  
Wind Chill:   Ceiling: Unl
Heat Index:   Visibility: 10mi
Dew Point: -1°   Wind: 0mph
Humidity: 84%   Direction: NA
Pressure: 29.96"   Gusts: NA
Location:  45.9065°N, 89.2784°W
Report Text: KEGV 260410Z AUTO 00000KT 10SM CLR M16/M18 A2996 RMK AO2 T11601181
Loading
Personal Weather Stations






























Interactive Weather Map New forecast layout! Learn more

10-Day Weather Forecast

Advertisements
Track Severe Weather on mobile